Time;durP1;ratioP1;P1;durP2;ratioP2;P2;SDS_P1;SDS_P2;PMS_P1;PMS_P2;Temp;Humidity;BMP_temperature;BMP_pressure;BME280_temperature;BME280_humidity;BME280_pressure;Samples;Min_cycle;Max_cycle;Signal;HPM_P1;HPM_P2
2021/10/20 00:00:02;;;;;;;9.18;8.27;;;;;;;16.37;100.00;100372.09;5029954;28;20180;-79
2021/10/20 00:02:41;;;;;;;9.63;7.88;;;;;;;16.32;100.00;100369.50;5018069;28;20213;-79
2021/10/20 00:05:12;;;;;;;8.85;7.88;;;;;;;16.38;100.00;100361.94;4996158;28;20645;-79
2021/10/20 00:07:37;;;;;;;8.57;7.72;;;;;;;16.35;100.00;100365.31;5006774;28;20250;-79
2021/10/20 00:10:03;;;;;;;8.43;7.63;;;;;;;16.34;100.00;100364.50;4995387;28;20182;-80
2021/10/20 00:12:29;;;;;;;8.52;7.72;;;;;;;16.29;100.00;100369.31;4981526;28;20221;-79
2021/10/20 00:14:55;;;;;;;9.05;7.70;;;;;;;16.27;100.00;100346.91;4979776;28;20719;-80
2021/10/20 00:17:23;;;;;;;7.70;6.97;;;;;;;16.24;100.00;100348.34;5023330;28;20243;-79
2021/10/20 00:19:56;;;;;;;7.18;6.57;;;;;;;16.23;100.00;100343.97;5001720;28;20200;-79
2021/10/20 00:22:22;;;;;;;10.40;7.32;;;;;;;16.08;100.00;100349.06;5004815;28;20236;-80
2021/10/20 00:24:52;;;;;;;7.47;6.78;;;;;;;16.13;100.00;100343.41;4970416;28;20200;-79
2021/10/20 00:27:20;;;;;;;7.47;6.70;;;;;;;16.13;100.00;100348.09;5003759;28;20282;-79
2021/10/20 00:29:48;;;;;;;7.22;6.47;;;;;;;16.20;100.00;100332.84;4988672;28;20188;-79
2021/10/20 00:32:14;;;;;;;7.40;6.57;;;;;;;15.94;100.00;100333.81;5019456;28;20232;-79
2021/10/20 00:34:39;;;;;;;9.18;6.70;;;;;;;15.88;100.00;100330.41;5019055;28;20235;-79
2021/10/20 00:37:05;;;;;;;6.95;6.25;;;;;;;15.97;100.00;100322.22;4983997;28;20221;-78
2021/10/20 00:39:33;;;;;;;8.52;6.70;;;;;;;15.84;100.00;100317.63;4981811;28;20256;-79
2021/10/20 00:41:58;;;;;;;8.32;6.85;;;;;;;15.99;100.00;100320.00;4985129;28;20251;-79
2021/10/20 00:44:26;;;;;;;7.03;6.40;;;;;;;15.83;100.00;100319.56;5002310;28;20197;-79
2021/10/20 00:46:54;;;;;;;8.52;6.75;;;;;;;15.71;100.00;100317.72;4984116;28;20602;-79
2021/10/20 00:49:24;;;;;;;7.38;6.68;;;;;;;15.61;100.00;100318.81;4998929;28;20181;-79
2021/10/20 00:51:50;;;;;;;7.57;6.78;;;;;;;15.60;100.00;100310.91;5013242;28;20703;-79
2021/10/20 00:54:19;;;;;;;9.93;7.20;;;;;;;15.56;100.00;100309.91;5006055;28;20268;-80
2021/10/20 00:56:50;;;;;;;8.20;6.68;;;;;;;15.65;100.00;100308.03;5002530;28;20276;-79
2021/10/20 00:59:15;;;;;;;8.35;7.28;;;;;;;15.55;100.00;100302.84;4966564;28;20213;-79
2021/10/20 01:01:45;;;;;;;8.02;7.22;;;;;;;15.51;100.00;100299.09;4998022;28;20236;-79
2021/10/20 01:04:13;;;;;;;9.40;7.40;;;;;;;15.39;100.00;100302.41;5009158;28;20294;-79
2021/10/20 01:06:41;;;;;;;9.85;7.15;;;;;;;15.40;100.00;100284.88;5011679;28;20668;-78
2021/10/20 01:09:07;;;;;;;8.27;7.47;;;;;;;15.52;100.00;100285.09;4990269;28;20204;-79
2021/10/20 01:11:39;;;;;;;8.77;7.22;;;;;;;15.46;100.00;100282.81;5017702;28;20235;-78
2021/10/20 01:14:05;;;;;;;9.68;7.97;;;;;;;15.37;100.00;100276.47;5026165;28;20234;-79
2021/10/20 01:16:31;;;;;;;8.63;7.38;;;;;;;15.45;100.00;100281.19;5031973;28;20906;-80
2021/10/20 01:18:58;;;;;;;8.85;7.07;;;;;;;15.45;100.00;100275.72;5004996;28;20585;-79
2021/10/20 01:21:24;;;;;;;11.15;8.30;;;;;;;15.30;100.00;100273.38;4998916;28;20278;-79
2021/10/20 01:23:53;;;;;;;9.00;7.60;;;;;;;15.22;100.00;100276.84;5025020;28;20208;-79
2021/10/20 01:26:19;;;;;;;10.23;7.82;;;;;;;15.30;100.00;100262.41;5013043;28;20249;-81
2021/10/20 01:28:47;;;;;;;9.35;6.95;;;;;;;15.16;100.00;100261.69;4984937;28;20690;-79
2021/10/20 01:31:13;;;;;;;8.87;7.60;;;;;;;15.29;100.00;100255.34;4995070;28;20245;-79
2021/10/20 01:33:38;;;;;;;8.38;7.45;;;;;;;15.06;100.00;100245.47;5024183;28;20196;-79
2021/10/20 01:36:04;;;;;;;8.25;7.07;;;;;;;15.09;100.00;100255.81;5020099;28;20225;-79
2021/10/20 01:38:35;;;;;;;8.55;7.18;;;;;;;15.17;100.00;100246.88;4986235;28;20190;-79
2021/10/20 01:41:01;;;;;;;8.23;7.43;;;;;;;15.13;100.00;100245.06;5024096;28;20216;-79
2021/10/20 01:43:38;;;;;;;9.18;7.43;;;;;;;15.05;100.00;100237.56;5008350;28;20274;-79
2021/10/20 01:46:03;;;;;;;7.82;6.95;;;;;;;14.97;100.00;100234.81;5038431;28;20216;-79
2021/10/20 01:48:29;;;;;;;8.77;7.13;;;;;;;15.06;100.00;100240.00;5004408;28;20177;-79
2021/10/20 01:50:59;;;;;;;7.63;6.90;;;;;;;15.12;100.00;100230.53;5021419;28;20228;-79
2021/10/20 01:53:25;;;;;;;7.60;6.90;;;;;;;14.97;100.00;100221.13;5041100;28;20226;-78
2021/10/20 01:55:53;;;;;;;8.38;7.57;;;;;;;15.10;100.00;100216.38;5025534;28;20217;-80
2021/10/20 01:58:19;;;;;;;7.95;7.15;;;;;;;14.94;100.00;100219.00;4989311;28;20252;-79
2021/10/20 02:00:45;;;;;;;9.13;6.97;;;;;;;14.78;100.00;100212.28;4988392;28;20285;-79
2021/10/20 02:03:12;;;;;;;9.90;7.03;;;;;;;15.00;100.00;100205.69;5024120;28;20279;-78
2021/10/20 02:05:40;;;;;;;8.10;6.90;;;;;;;14.99;100.00;100198.59;5025360;28;20248;-78
2021/10/20 02:08:06;;;;;;;7.90;7.07;;;;;;;14.91;100.00;100195.00;4988080;28;20674;-78
2021/10/20 02:10:34;;;;;;;8.00;6.57;;;;;;;14.85;100.00;100193.50;4967998;28;20738;-79
2021/10/20 02:13:07;;;;;;;7.65;6.75;;;;;;;15.04;100.00;100184.00;5017241;28;20290;-79
2021/10/20 02:15:33;;;;;;;7.90;6.75;;;;;;;14.98;100.00;100181.69;5025266;28;20227;-78
2021/10/20 02:18:02;;;;;;;7.40;6.37;;;;;;;14.94;100.00;100175.25;5027224;28;20177;-79
2021/10/20 02:20:28;;;;;;;9.50;6.93;;;;;;;14.83;100.00;100182.06;5003207;28;20236;-80
2021/10/20 02:22:55;;;;;;;9.60;6.75;;;;;;;14.83;100.00;100173.88;5018064;28;20216;-79
2021/10/20 02:25:26;;;;;;;7.33;6.60;;;;;;;14.94;100.00;100164.28;5009445;28;20220;-79
2021/10/20 02:27:54;;;;;;;7.30;6.47;;;;;;;14.87;100.00;100158.44;4995185;28;20604;-80
2021/10/20 02:30:23;;;;;;;7.00;6.30;;;;;;;14.86;100.00;100162.31;4988619;28;20247;-79
2021/10/20 02:32:56;;;;;;;6.70;5.97;;;;;;;14.83;100.00;100152.00;4981946;28;20192;-79
2021/10/20 02:35:27;;;;;;;6.70;6.00;;;;;;;14.90;100.00;100152.38;5041100;28;20882;-78
2021/10/20 02:37:54;;;;;;;6.53;5.87;;;;;;;14.88;100.00;100140.94;4994735;28;20222;-79
2021/10/20 02:40:23;;;;;;;7.87;6.50;;;;;;;14.84;100.00;100148.16;4952634;28;20647;-78
2021/10/20 02:42:48;;;;;;;6.87;6.17;;;;;;;14.88;100.00;100144.47;4990168;28;20242;-79
2021/10/20 02:45:15;;;;;;;7.50;6.50;;;;;;;14.76;100.00;100146.16;5024325;28;20188;-79
2021/10/20 02:47:41;;;;;;;7.23;6.20;;;;;;;14.86;100.00;100140.44;5015619;28;20177;-80
2021/10/20 02:50:07;;;;;;;9.47;6.37;;;;;;;14.84;100.00;100134.50;5004078;28;20192;-78
2021/10/20 02:52:32;;;;;;;6.80;5.90;;;;;;;14.85;100.00;100134.19;4994044;28;20199;-80
2021/10/20 02:54:58;;;;;;;6.90;6.20;;;;;;;14.83;100.00;100130.13;5007382;28;20246;-79
2021/10/20 02:57:26;;;;;;;7.20;6.10;;;;;;;14.70;100.00;100137.28;5014553;28;20364;-79
2021/10/20 02:59:52;;;;;;;6.30;5.70;;;;;;;14.67;100.00;100120.72;4985355;28;20657;-79
2021/10/20 03:02:22;;;;;;;6.07;5.57;;;;;;;14.89;100.00;100117.94;5006664;28;20243;-79
2021/10/20 03:04:48;;;;;;;6.80;6.03;;;;;;;14.66;100.00;100116.34;5024685;28;20208;-80
2021/10/20 03:07:16;;;;;;;7.00;5.80;;;;;;;14.68;100.00;100117.63;5005518;28;20227;-79
2021/10/20 03:09:41;;;;;;;7.90;5.80;;;;;;;14.70;100.00;100114.59;5003089;28;20173;-79
2021/10/20 03:12:07;;;;;;;7.07;5.60;;;;;;;14.63;100.00;100114.22;4987804;28;20228;-80
2021/10/20 03:14:35;;;;;;;6.07;5.47;;;;;;;14.66;100.00;100108.16;5038849;28;20191;-80
2021/10/20 03:17:00;;;;;;;6.93;5.93;;;;;;;14.74;100.00;100102.75;5008354;28;20243;-79
2021/10/20 03:19:26;;;;;;;6.30;5.70;;;;;;;14.56;100.00;100100.22;4968734;28;20178;-79
2021/10/20 03:21:51;;;;;;;6.18;5.60;;;;;;;14.47;100.00;100104.81;4984551;28;20304;-79
2021/10/20 03:24:19;;;;;;;6.17;5.57;;;;;;;14.48;100.00;100106.41;5015410;28;20206;-78
2021/10/20 03:26:49;;;;;;;6.70;5.97;;;;;;;14.60;100.00;100095.72;5006765;28;20242;-80
2021/10/20 03:29:17;;;;;;;6.80;5.70;;;;;;;14.42;100.00;100095.94;5022278;28;20185;-80
2021/10/20 03:31:45;;;;;;;6.00;5.40;;;;;;;14.45;100.00;100095.28;4985809;28;20235;-79
2021/10/20 03:34:15;;;;;;;6.37;5.60;;;;;;;14.37;100.00;100096.84;5002218;28;20184;-79
2021/10/20 03:36:41;;;;;;;6.03;5.43;;;;;;;14.47;100.00;100091.16;5007297;28;20302;-79
2021/10/20 03:39:06;;;;;;;5.23;4.83;;;;;;;14.48;100.00;100090.00;5007727;28;20194;-79
2021/10/20 03:41:34;;;;;;;7.10;5.23;;;;;;;14.46;100.00;100086.78;4967587;28;20283;-79
2021/10/20 03:44:02;;;;;;;6.38;5.18;;;;;;;14.42;100.00;100085.00;5007307;28;20310;-78
2021/10/20 03:46:28;;;;;;;5.80;5.30;;;;;;;14.37;100.00;100077.72;5023330;28;20228;-79
2021/10/20 03:48:53;;;;;;;5.60;5.10;;;;;;;14.31;100.00;100068.03;4993147;28;20192;-79
2021/10/20 03:51:19;;;;;;;6.77;4.90;;;;;;;14.34;100.00;100056.50;4951244;28;20236;-78
2021/10/20 03:53:47;;;;;;;6.47;5.65;;;;;;;14.25;100.00;100052.88;4984775;28;20708;-80
2021/10/20 03:56:17;;;;;;;5.40;4.90;;;;;;;14.20;100.00;100051.41;5007752;28;20236;-80
2021/10/20 03:58:45;;;;;;;6.10;5.03;;;;;;;14.21;100.00;100050.28;5032168;28;20189;-79
2021/10/20 04:01:13;;;;;;;5.40;4.90;;;;;;;14.18;100.00;100032.59;4986024;28;20213;-79
2021/10/20 04:03:41;;;;;;;5.00;4.60;;;;;;;14.29;100.00;100029.28;4991465;28;20401;-80
2021/10/20 04:06:07;;;;;;;6.00;4.57;;;;;;;14.25;100.00;100024.78;5039039;28;20282;-79
2021/10/20 04:08:35;;;;;;;6.07;4.67;;;;;;;14.23;100.00;100015.25;5033949;28;20209;-78
2021/10/20 04:11:03;;;;;;;7.20;4.90;;;;;;;14.26;100.00;100016.25;4971911;28;20221;-79
2021/10/20 04:13:28;;;;;;;5.07;4.57;;;;;;;14.35;100.00;100019.03;5007163;28;20208;-78
2021/10/20 04:15:56;;;;;;;5.73;4.60;;;;;;;14.37;100.00;100023.06;5021210;28;20232;-80
2021/10/20 04:18:22;;;;;;;5.20;4.37;;;;;;;14.16;100.00;100020.38;5005691;28;20665;-79
2021/10/20 04:20:52;;;;;;;5.43;4.67;;;;;;;14.13;100.00;100021.78;4970454;28;20220;-79
2021/10/20 04:23:22;;;;;;;5.53;4.40;;;;;;;14.43;100.00;100021.84;5003540;28;20217;-79
2021/10/20 04:25:48;;;;;;;5.80;5.30;;;;;;;14.35;100.00;100028.03;5007379;28;20220;-79
2021/10/20 04:28:13;;;;;;;6.07;4.63;;;;;;;14.22;100.00;100021.84;5007364;28;20198;-80
2021/10/20 04:30:44;;;;;;;5.10;4.60;;;;;;;14.31;100.00;100018.84;5021556;28;20303;-79
2021/10/20 04:33:16;;;;;;;5.60;4.40;;;;;;;14.26;100.00;100027.16;5005117;28;20200;-79
2021/10/20 04:35:44;;;;;;;5.30;4.27;;;;;;;14.22;100.00;100022.66;5022428;28;20224;-79
2021/10/20 04:38:10;;;;;;;4.73;4.23;;;;;;;14.14;100.00;100017.13;4991390;28;20177;-80
2021/10/20 04:40:35;;;;;;;5.00;4.30;;;;;;;14.18;100.00;100009.94;5007417;28;20231;-79
2021/10/20 04:43:03;;;;;;;7.53;4.47;;;;;;;14.15;100.00;100010.53;5026790;28;20226;-79
2021/10/20 04:45:31;;;;;;;4.13;3.73;;;;;;;14.27;100.00;100006.94;4992497;28;20225;-79
2021/10/20 04:47:56;;;;;;;7.20;6.57;;;;;;;14.35;100.00;100008.91;4974199;28;20202;-79
2021/10/20 04:50:25;;;;;;;6.50;5.90;;;;;;;14.30;100.00;100005.50;4989175;28;20251;-79
2021/10/20 04:52:51;;;;;;;5.43;4.50;;;;;;;14.26;100.00;100002.56;5028964;28;20204;-80
2021/10/20 04:55:16;;;;;;;6.83;4.40;;;;;;;14.24;100.00;100001.28;5012244;28;20184;-79
2021/10/20 04:57:50;;;;;;;4.50;4.10;;;;;;;14.26;100.00;99988.91;4956905;28;20169;-79
2021/10/20 05:00:18;;;;;;;6.03;4.30;;;;;;;14.24;100.00;99993.09;5010818;28;20645;-80
2021/10/20 05:02:47;;;;;;;5.40;4.40;;;;;;;14.21;100.00;99984.72;5011289;28;20200;-79
2021/10/20 05:05:15;;;;;;;5.07;4.40;;;;;;;14.11;100.00;99991.25;5031426;28;20185;-80
2021/10/20 05:07:50;;;;;;;5.20;4.20;;;;;;;14.27;100.00;99979.63;5007686;28;20185;-79
2021/10/20 05:10:21;;;;;;;4.50;4.10;;;;;;;14.25;100.00;99970.94;5000144;28;20188;-79
2021/10/20 05:12:49;;;;;;;5.70;4.03;;;;;;;14.27;100.00;99967.91;5026760;28;20212;-79
2021/10/20 05:15:14;;;;;;;5.40;4.00;;;;;;;14.13;100.00;99974.53;5017670;28;20177;-79
2021/10/20 05:17:40;;;;;;;5.73;4.53;;;;;;;14.26;100.00;99967.06;5008010;28;20690;-79
2021/10/20 05:20:09;;;;;;;4.47;4.03;;;;;;;14.40;100.00;99951.41;4994503;28;20192;-79
2021/10/20 05:22:40;;;;;;;6.43;4.70;;;;;;;14.12;100.00;99948.34;5026590;28;20564;-79
2021/10/20 05:25:10;;;;;;;4.97;4.13;;;;;;;14.18;100.00;99944.38;5021020;28;20212;-79
2021/10/20 05:27:38;;;;;;;4.73;4.00;;;;;;;14.29;100.00;99954.72;5022956;28;20574;-79
2021/10/20 05:30:07;;;;;;;4.07;3.70;;;;;;;14.35;100.00;99946.06;5029430;28;20185;-80
2021/10/20 05:32:35;;;;;;;5.03;4.00;;;;;;;14.16;100.00;99935.69;5026239;28;20320;-78
2021/10/20 05:35:00;;;;;;;4.57;4.17;;;;;;;14.14;100.00;99935.19;5002180;28;20193;-78
2021/10/20 05:37:26;;;;;;;6.10;4.20;;;;;;;14.35;100.00;99937.88;4987266;28;20736;-79
2021/10/20 05:39:56;;;;;;;5.60;3.90;;;;;;;14.42;100.00;99932.75;5008391;28;20193;-80
2021/10/20 05:42:24;;;;;;;3.87;3.53;;;;;;;14.34;100.00;99924.50;5026168;28;20224;-79
2021/10/20 05:44:49;;;;;;;4.23;3.73;;;;;;;14.30;100.00;99935.28;5040780;28;20277;-79
2021/10/20 05:47:19;;;;;;;5.77;3.83;;;;;;;14.40;100.00;99913.16;4988604;28;20228;-79
2021/10/20 05:49:45;;;;;;;4.03;3.63;;;;;;;14.34;100.00;99908.94;4990556;28;20192;-79
2021/10/20 05:52:15;;;;;;;5.17;4.30;;;;;;;14.41;100.00;99912.03;5026117;28;20231;-79
2021/10/20 05:54:40;;;;;;;3.87;3.50;;;;;;;14.32;100.00;99908.47;5026192;28;20260;-78
2021/10/20 05:57:11;;;;;;;4.43;3.77;;;;;;;14.26;100.00;99904.22;5006163;28;20284;-79
2021/10/20 05:59:41;;;;;;;3.83;3.53;;;;;;;14.38;100.00;99898.19;4990460;28;20204;-79
2021/10/20 06:02:11;;;;;;;4.63;3.90;;;;;;;14.26;100.00;99896.03;5007505;28;20693;-79
2021/10/20 06:04:36;;;;;;;4.73;3.70;;;;;;;14.40;100.00;99891.28;5025748;28;20249;-78
2021/10/20 06:07:02;;;;;;;5.97;4.00;;;;;;;14.39;100.00;99889.66;5008531;28;20224;-79
2021/10/20 06:09:30;;;;;;;4.73;3.73;;;;;;;14.40;100.00;99885.03;5021068;28;20178;-79
2021/10/20 06:12:01;;;;;;;4.10;3.70;;;;;;;14.25;100.00;99886.25;5019726;28;20232;-79
2021/10/20 06:14:27;;;;;;;3.80;3.50;;;;;;;14.37;100.00;99875.50;5041204;28;20181;-78
2021/10/20 06:16:53;;;;;;;3.93;3.63;;;;;;;14.50;100.00;99879.25;5009478;28;20304;-78
2021/10/20 06:19:20;;;;;;;4.13;3.67;;;;;;;14.47;100.00;99882.63;4988980;28;20189;-79
2021/10/20 06:21:48;;;;;;;5.20;3.73;;;;;;;14.50;100.00;99874.59;5034998;28;20259;-78
2021/10/20 06:24:16;;;;;;;3.90;3.60;;;;;;;14.47;100.00;99877.97;5009051;28;20204;-78
2021/10/20 06:26:44;;;;;;;4.33;3.80;;;;;;;14.44;100.00;99880.53;4992960;28;20220;-78
2021/10/20 06:29:14;;;;;;;5.37;3.60;;;;;;;14.43;100.00;99878.91;5013033;28;20184;-78
2021/10/20 06:31:39;;;;;;;5.33;3.63;;;;;;;14.38;100.00;99882.59;5032530;28;20314;-79
2021/10/20 06:34:07;;;;;;;3.87;3.57;;;;;;;14.50;100.00;99880.06;5004840;28;20176;-79
2021/10/20 06:36:37;;;;;;;3.90;3.47;;;;;;;14.44;100.00;99875.88;4999305;28;20276;-78
2021/10/20 06:39:03;;;;;;;10.07;8.47;;;;;;;14.52;100.00;99882.47;5004422;28;20718;-79
2021/10/20 06:41:34;;;;;;;8.87;7.57;;;;;;;14.60;100.00;99874.31;5028834;28;20243;-78
2021/10/20 06:44:04;;;;;;;5.70;5.13;;;;;;;14.57;100.00;99869.47;5041296;28;20656;-79
2021/10/20 06:46:34;;;;;;;5.43;3.80;;;;;;;14.57;100.00;99863.22;5016511;28;20223;-79
2021/10/20 06:49:02;;;;;;;6.10;3.63;;;;;;;14.58;100.00;99854.72;5022202;28;20193;-79
2021/10/20 06:51:27;;;;;;;5.60;3.60;;;;;;;14.72;100.00;99860.84;4995371;28;20247;-79
2021/10/20 06:53:53;;;;;;;4.60;3.80;;;;;;;14.74;100.00;99866.78;5025902;28;20271;-78
2021/10/20 06:56:21;;;;;;;4.13;3.73;;;;;;;14.68;100.00;99862.59;5000945;28;20237;-77
2021/10/20 06:58:49;;;;;;;4.10;3.70;;;;;;;14.67;100.00;99855.53;4969576;28;20221;-79
2021/10/20 07:01:14;;;;;;;4.10;3.70;;;;;;;14.85;100.00;99860.72;4991574;28;20587;-78
2021/10/20 07:03:40;;;;;;;4.65;4.03;;;;;;;14.94;100.00;99855.25;5040493;28;20224;-79
2021/10/20 07:06:08;;;;;;;4.03;3.43;;;;;;;14.82;100.00;99849.63;5023646;28;20228;-78
2021/10/20 07:08:34;;;;;;;6.83;3.93;;;;;;;14.93;100.00;99851.72;5005077;28;20192;-78
2021/10/20 07:10:59;;;;;;;4.40;4.00;;;;;;;14.89;100.00;99849.94;4988007;28;20224;-78
2021/10/20 07:13:25;;;;;;;5.03;3.90;;;;;;;15.04;100.00;99855.75;5024798;28;20574;-78
2021/10/20 07:15:53;;;;;;;5.53;3.80;;;;;;;14.93;100.00;99845.44;5023518;28;20772;-78
2021/10/20 07:18:23;;;;;;;4.90;3.97;;;;;;;15.10;100.00;99841.59;5005751;28;20205;-79
2021/10/20 07:20:49;;;;;;;4.73;4.33;;;;;;;15.12;100.00;99844.00;4988622;28;20235;-78
2021/10/20 07:23:14;;;;;;;4.43;4.03;;;;;;;15.15;100.00;99833.25;5021135;28;20204;-79
2021/10/20 07:25:40;;;;;;;4.83;4.33;;;;;;;15.22;100.00;99817.16;5024407;28;20215;-79
2021/10/20 07:28:09;;;;;;;4.57;4.18;;;;;;;15.15;100.00;99825.06;5006740;28;20253;-78
2021/10/20 07:30:37;;;;;;;5.00;4.30;;;;;;;15.28;100.00;99818.59;4969627;28;20257;-78
2021/10/20 07:33:05;;;;;;;6.17;4.43;;;;;;;15.31;100.00;99807.03;5011662;28;20677;-78
2021/10/20 07:35:31;;;;;;;4.57;4.17;;;;;;;15.37;100.00;99813.13;5008399;28;20223;-78
2021/10/20 07:37:57;;;;;;;5.30;4.80;;;;;;;15.40;100.00;99808.63;4991448;28;20182;-77
2021/10/20 07:40:22;;;;;;;6.07;5.00;;;;;;;15.47;100.00;99808.13;4984620;28;20253;-79
2021/10/20 07:42:52;;;;;;;5.63;4.90;;;;;;;15.78;100.00;99804.00;5006871;28;20204;-78
2021/10/20 07:45:19;;;;;;;5.37;4.90;;;;;;;15.80;100.00;99796.28;5022351;28;20176;-79
2021/10/20 07:47:55;;;;;;;5.55;4.97;;;;;;;15.82;100.00;99783.88;5014792;28;20169;-78
2021/10/20 07:50:25;;;;;;;5.40;4.70;;;;;;;15.84;100.00;99778.88;5003176;28;20590;-78
2021/10/20 07:52:55;;;;;;;7.90;7.13;;;;;;;15.93;100.00;99781.56;5013628;28;20215;-79
2021/10/20 07:55:22;;;;;;;5.72;5.03;;;;;;;15.98;100.00;99770.44;5006175;28;20189;-78
2021/10/20 07:57:50;;;;;;;5.88;4.70;;;;;;;16.05;100.00;99770.75;5012789;28;20196;-77
2021/10/20 08:00:15;;;;;;;6.78;4.80;;;;;;;16.13;100.00;99767.94;4986741;28;20242;-78
2021/10/20 08:02:43;;;;;;;5.30;4.80;;;;;;;16.27;100.00;99774.03;4997244;28;20258;-78
2021/10/20 08:05:12;;;;;;;6.07;4.43;;;;;;;16.24;100.00;99759.06;5026895;28;20188;-79
2021/10/20 08:07:44;;;;;;;6.75;4.88;;;;;;;16.32;100.00;99754.69;4986415;28;20182;-80
2021/10/20 08:10:14;;;;;;;5.07;4.47;;;;;;;16.45;100.00;99739.91;5000898;28;20190;-78
2021/10/20 08:12:47;;;;;;;5.05;4.55;;;;;;;16.45;100.00;99732.50;5001198;28;20212;-78
2021/10/20 08:15:16;;;;;;;6.68;4.78;;;;;;;16.61;100.00;99742.53;4993841;28;20199;-78
2021/10/20 08:17:42;;;;;;;5.30;4.80;;;;;;;16.62;100.00;99738.63;5021416;28;20185;-78
2021/10/20 08:20:09;;;;;;;5.37;4.83;;;;;;;16.69;100.00;99721.66;5019417;28;20196;-78
2021/10/20 08:22:36;;;;;;;5.78;4.50;;;;;;;16.79;100.00;99716.56;5006723;28;20188;-78
2021/10/20 08:25:04;;;;;;;5.03;4.40;;;;;;;16.68;100.00;99714.56;5006452;28;20341;-79
2021/10/20 08:27:32;;;;;;;5.50;4.53;;;;;;;16.73;100.00;99695.97;5019252;28;20287;-79
2021/10/20 08:29:58;;;;;;;9.82;4.47;;;;;;;16.85;100.00;99714.41;4981433;28;20189;-79
2021/10/20 08:32:23;;;;;;;6.38;4.72;;;;;;;16.97;100.00;99718.03;5002044;28;20334;-78
2021/10/20 08:34:50;;;;;;;4.93;4.43;;;;;;;17.00;100.00;99717.38;4970046;28;20254;-79
2021/10/20 08:37:19;;;;;;;5.85;4.63;;;;;;;17.03;100.00;99719.41;4982763;28;20225;-78
2021/10/20 08:39:47;;;;;;;5.63;4.93;;;;;;;17.27;100.00;99727.78;5001954;28;20188;-78
2021/10/20 08:42:15;;;;;;;4.93;4.53;;;;;;;17.34;100.00;99735.16;5005589;28;20315;-78
2021/10/20 08:44:43;;;;;;;5.60;4.55;;;;;;;17.60;100.00;99735.66;5001357;28;20208;-80
2021/10/20 08:47:09;;;;;;;6.22;5.03;;;;;;;17.55;100.00;99724.91;4966140;28;20225;-79
2021/10/20 08:49:39;;;;;;;6.13;5.32;;;;;;;17.75;100.00;99724.81;4999081;28;20272;-78
2021/10/20 08:52:05;;;;;;;5.88;4.65;;;;;;;17.82;100.00;99724.25;5000706;28;20224;-78
2021/10/20 08:54:33;;;;;;;8.07;4.80;;;;;;;17.92;100.00;99710.06;5005174;28;20211;-77
2021/10/20 08:57:01;;;;;;;4.93;4.50;;;;;;;18.06;100.00;99710.50;5000004;28;20236;-79
2021/10/20 08:59:29;;;;;;;5.03;4.30;;;;;;;17.97;100.00;99718.09;4999088;28;20192;-78
2021/10/20 09:01:59;;;;;;;5.18;4.68;;;;;;;18.05;100.00;99706.97;5021896;28;20232;-78
2021/10/20 09:04:29;;;;;;;5.07;4.40;;;;;;;18.07;100.00;99677.19;5004855;28;20201;-79
2021/10/20 09:06:59;;;;;;;5.47;4.40;;;;;;;18.05;100.00;99673.19;4984472;28;20284;-77
2021/10/20 09:09:33;;;;;;;5.43;4.45;;;;;;;18.14;100.00;99671.94;5016402;28;20298;-79
2021/10/20 09:11:59;;;;;;;7.40;4.72;;;;;;;18.24;100.00;99665.97;5007271;28;20240;-77
2021/10/20 09:14:29;;;;;;;4.93;4.40;;;;;;;18.26;100.00;99653.50;4993482;28;20182;-79
2021/10/20 09:16:55;;;;;;;4.82;4.32;;;;;;;18.21;100.00;99633.69;4981333;28;20225;-79
2021/10/20 09:19:31;;;;;;;5.30;4.57;;;;;;;18.18;100.00;99634.38;4995612;28;20184;-78
2021/10/20 09:22:04;;;;;;;5.05;4.55;;;;;;;18.18;100.00;99629.66;5003828;28;20221;-79
2021/10/20 09:24:35;;;;;;;6.47;4.53;;;;;;;18.32;100.00;99624.59;4985843;28;20231;-78
2021/10/20 09:27:03;;;;;;;5.15;4.65;;;;;;;18.50;100.00;99614.94;5003407;28;20229;-79
2021/10/20 09:29:34;;;;;;;4.85;4.22;;;;;;;18.47;100.00;99615.63;5016150;28;20200;-78
2021/10/20 09:32:02;;;;;;;6.05;4.80;;;;;;;18.49;100.00;99619.59;5024042;28;20219;-79
2021/10/20 09:34:36;;;;;;;5.53;4.63;;;;;;;18.39;100.00;99630.31;5012544;28;20182;-79
2021/10/20 09:37:05;;;;;;;5.45;4.70;;;;;;;18.44;100.00;99621.81;4985548;28;20229;-79
2021/10/20 09:39:38;;;;;;;7.53;4.80;;;;;;;18.29;100.00;99630.00;4986810;28;20184;-79
2021/10/20 09:42:16;;;;;;;4.82;4.32;;;;;;;18.24;100.00;99614.53;5022203;28;20224;-77
2021/10/20 09:44:49;;;;;;;5.30;4.78;;;;;;;18.45;100.00;99590.41;5017877;28;20271;-78
2021/10/20 09:47:22;;;;;;;5.32;4.80;;;;;;;18.48;100.00;99595.22;5003824;28;20271;-79
2021/10/20 09:49:49;;;;;;;5.13;4.63;;;;;;;18.78;100.00;99611.03;4998000;28;20184;-79
2021/10/20 09:52:17;;;;;;;4.85;4.45;;;;;;;18.70;100.00;99619.41;5039030;28;20248;-79
2021/10/20 09:54:45;;;;;;;6.47;4.75;;;;;;;18.75;100.00;99624.69;5032685;28;20652;-79
2021/10/20 09:57:13;;;;;;;5.10;4.70;;;;;;;18.66;100.00;99613.00;5019772;28;20217;-78
2021/10/20 09:59:42;;;;;;;5.00;4.45;;;;;;;18.63;100.00;99610.97;5019228;28;20185;-78
2021/10/20 10:02:12;;;;;;;5.70;4.53;;;;;;;18.54;100.00;99599.31;5030190;28;20224;-78
2021/10/20 10:04:40;;;;;;;5.30;4.80;;;;;;;18.59;100.00;99596.34;5042348;28;20192;-78
2021/10/20 10:07:06;;;;;;;5.00;4.50;;;;;;;18.57;100.00;99598.59;5011000;28;20224;-78
2021/10/20 10:09:34;;;;;;;6.05;4.32;;;;;;;18.64;100.00;99596.06;4999480;28;20208;-79
2021/10/20 10:12:11;;;;;;;6.32;4.75;;;;;;;18.70;100.00;99569.88;5013982;28;20227;-79
2021/10/20 10:14:55;;;;;;;7.30;4.60;;;;;;;18.85;100.00;99534.16;5039445;28;20181;-77
2021/10/20 10:17:20;;;;;;;6.35;4.45;;;;;;;18.71;100.00;99527.47;4991882;28;20228;-78
2021/10/20 10:19:46;;;;;;;6.63;5.30;;;;;;;18.81;100.00;99526.94;5005635;28;20196;-78
2021/10/20 10:22:28;;;;;;;7.70;4.45;;;;;;;18.57;100.00;99527.06;5000734;28;20235;-77
2021/10/20 10:24:58;;;;;;;4.82;4.32;;;;;;;18.39;100.00;99520.31;5013422;28;20204;-77
2021/10/20 10:27:24;;;;;;;5.82;4.40;;;;;;;18.35;100.00;99500.16;4998741;28;20225;-79
2021/10/20 10:29:52;;;;;;;5.85;4.10;;;;;;;18.47;100.00;99513.84;5019431;28;20176;-78
2021/10/20 10:32:21;;;;;;;6.28;4.43;;;;;;;18.58;100.00;99512.19;5034536;28;20250;-78
2021/10/20 10:34:51;;;;;;;6.15;4.60;;;;;;;18.51;100.00;99512.81;5036132;28;20185;-79
2021/10/20 10:37:31;;;;;;;5.20;4.22;;;;;;;18.74;100.00;99504.78;4983949;28;20720;-78
2021/10/20 10:40:19;;;;;;;4.70;4.13;;;;;;;18.47;100.00;99507.56;5004961;28;20184;-79
2021/10/20 10:42:48;;;;;;;4.90;4.28;;;;;;;18.65;100.00;99513.19;5037428;28;20585;-79
2021/10/20 10:45:15;;;;;;;5.03;4.30;;;;;;;18.63;100.00;99520.19;4999988;28;20208;-79
2021/10/20 10:48:00;;;;;;;4.93;4.43;;;;;;;18.64;100.00;99525.34;5002454;28;20239;-80
2021/10/20 10:50:53;;;;;;;4.68;4.22;;;;;;;18.65;100.00;99528.91;5009363;28;20176;-78
2021/10/20 10:53:33;;;;;;;5.30;4.38;;;;;;;18.58;100.00;99523.19;5018367;28;20213;-77
2021/10/20 10:56:13;;;;;;;4.90;4.40;;;;;;;18.30;100.00;99521.63;4996464;28;20280;-78
2021/10/20 10:59:06;;;;;;;4.43;4.03;;;;;;;18.02;100.00;99504.28;5003459;28;20268;-79
2021/10/20 11:01:43;;;;;;;5.07;4.20;;;;;;;17.86;100.00;99508.91;5000584;28;20246;-78
2021/10/20 11:04:16;;;;;;;5.00;4.05;;;;;;;17.57;100.00;99505.63;5020988;28;20208;-79
2021/10/20 11:06:45;;;;;;;4.57;4.18;;;;;;;17.35;100.00;99528.06;5005743;28;20735;-79
2021/10/20 11:09:14;;;;;;;6.93;5.47;;;;;;;17.12;100.00;99506.09;5015722;28;20264;-79
2021/10/20 11:11:48;;;;;;;5.22;4.32;;;;;;;17.10;100.00;99498.19;4997581;28;20290;-80
2021/10/20 11:14:18;;;;;;;5.45;4.90;;;;;;;17.07;100.00;99467.91;5038654;28;20183;-80
2021/10/20 11:16:57;;;;;;;8.48;4.70;;;;;;;17.23;100.00;99468.84;4990034;28;20244;-80
2021/10/20 11:19:23;;;;;;;5.30;4.80;;;;;;;17.09;100.00;99462.88;5001262;28;20192;-80
2021/10/20 11:21:49;;;;;;;5.20;4.70;;;;;;;17.07;100.00;99451.44;4999110;28;20226;-80
2021/10/20 11:24:14;;;;;;;6.43;4.65;;;;;;;17.06;100.00;99463.56;5021059;28;20666;-79
2021/10/20 11:26:40;;;;;;;5.30;4.90;;;;;;;16.94;100.00;99447.09;4993079;28;20228;-81